createdAt,value
2023-03-03T00:00:48.379Z,0
2023-03-03T00:05:48.378Z,0
2023-03-03T00:10:48.386Z,0
2023-03-03T00:15:48.384Z,0
2023-03-03T00:20:48.381Z,0
2023-03-03T00:25:48.359Z,0
2023-03-03T00:30:48.327Z,0
2023-03-03T00:35:48.354Z,0
2023-03-03T00:40:48.348Z,0
2023-03-03T00:45:48.372Z,0
2023-03-03T00:50:48.329Z,0
2023-03-03T00:55:48.348Z,0
2023-03-03T01:00:48.370Z,0
2023-03-03T01:05:48.318Z,0
2023-03-03T01:10:48.300Z,0
2023-03-03T01:15:48.376Z,0
2023-03-03T01:20:48.340Z,0
2023-03-03T01:25:48.317Z,0
2023-03-03T01:30:48.309Z,0
2023-03-03T01:35:48.349Z,0
2023-03-03T01:40:48.344Z,0
2023-03-03T01:45:48.323Z,0
2023-03-03T01:50:48.318Z,0
2023-03-03T01:55:48.278Z,0
2023-03-03T02:00:48.334Z,0
2023-03-03T02:05:48.293Z,0
2023-03-03T02:10:48.286Z,0
2023-03-03T02:15:48.450Z,0
2023-03-03T02:20:48.295Z,0
2023-03-03T02:25:48.261Z,0
2023-03-03T02:30:48.299Z,0
2023-03-03T02:35:48.292Z,0
2023-03-03T02:40:48.302Z,0
2023-03-03T02:45:48.317Z,0
2023-03-03T02:50:48.296Z,0
2023-03-03T02:55:48.267Z,0
2023-03-03T03:00:48.315Z,0
2023-03-03T03:05:48.259Z,0
2023-03-03T03:10:48.252Z,0
2023-03-03T03:15:48.248Z,0
2023-03-03T03:20:48.618Z,0
2023-03-03T03:25:48.245Z,0
2023-03-03T03:30:48.317Z,0
2023-03-03T03:35:48.287Z,0
2023-03-03T03:40:48.241Z,0
2023-03-03T03:45:48.287Z,0
2023-03-03T03:50:48.222Z,0
2023-03-03T03:55:48.231Z,0
2023-03-03T04:00:48.283Z,0
2023-03-03T04:05:48.209Z,0
2023-03-03T04:10:48.210Z,0
2023-03-03T04:15:48.270Z,0
2023-03-03T04:20:48.265Z,0
2023-03-03T04:25:48.205Z,0
2023-03-03T04:30:48.246Z,0
2023-03-03T04:35:48.222Z,0
2023-03-03T04:40:48.248Z,0
2023-03-03T04:45:48.312Z,0
2023-03-03T04:50:48.228Z,0
2023-03-03T04:55:48.228Z,0
2023-03-03T05:00:48.202Z,0
2023-03-03T05:05:48.277Z,0
2023-03-03T05:10:48.165Z,0
2023-03-03T05:15:48.161Z,0
2023-03-03T05:20:48.191Z,0
2023-03-03T05:25:48.169Z,0
2023-03-03T05:30:48.161Z,0
2023-03-03T05:35:48.252Z,0
2023-03-03T05:40:48.184Z,0
2023-03-03T05:45:48.171Z,0
2023-03-03T05:50:48.187Z,0
2023-03-03T05:55:48.134Z,0
2023-03-03T06:00:48.171Z,0
2023-03-03T06:05:48.142Z,0
2023-03-03T06:10:48.172Z,0
2023-03-03T06:15:48.167Z,0
2023-03-03T06:20:48.166Z,0
2023-03-03T06:25:48.133Z,0
2023-03-03T06:30:48.114Z,2
2023-03-03T06:35:48.149Z,5
2023-03-03T06:40:48.146Z,6
2023-03-03T06:45:48.189Z,7
2023-03-03T06:50:48.131Z,13
2023-03-03T06:55:48.142Z,15
2023-03-03T07:00:48.183Z,14
2023-03-03T07:05:48.141Z,13
2023-03-03T07:10:48.122Z,14
2023-03-03T07:15:48.138Z,16
2023-03-03T07:20:48.148Z,16
2023-03-03T07:25:48.136Z,16
2023-03-03T07:30:48.153Z,15
2023-03-03T07:35:48.243Z,15
2023-03-03T07:40:48.180Z,18
2023-03-03T07:45:48.200Z,21
2023-03-03T07:50:48.108Z,22
2023-03-03T07:55:48.097Z,25
2023-03-03T08:00:48.268Z,31
2023-03-03T08:05:48.134Z,32
2023-03-03T08:10:48.215Z,41
2023-03-03T08:15:48.126Z,47
2023-03-03T08:20:48.136Z,50
2023-03-03T08:25:48.090Z,57
2023-03-03T08:30:48.121Z,63
2023-03-03T08:35:48.105Z,69
2023-03-03T08:40:48.115Z,71
2023-03-03T08:45:48.061Z,94
2023-03-03T08:50:48.086Z,81
2023-03-03T08:55:48.087Z,72
2023-03-03T09:00:50.262Z,77
2023-03-03T09:05:48.063Z,82
2023-03-03T09:10:48.062Z,83
2023-03-03T09:15:48.036Z,102
2023-03-03T09:20:48.127Z,95
2023-03-03T09:25:48.044Z,98
2023-03-03T09:30:48.060Z,100
2023-03-03T09:35:48.121Z,103
2023-03-03T09:40:48.082Z,106
2023-03-03T09:45:48.054Z,107
2023-03-03T09:50:48.028Z,109
2023-03-03T09:55:48.023Z,85
2023-03-03T10:00:48.058Z,101
2023-03-03T10:05:48.674Z,123
2023-03-03T10:10:48.056Z,123
2023-03-03T10:15:48.037Z,114
2023-03-03T10:20:50.848Z,117
2023-03-03T10:25:48.395Z,118
2023-03-03T10:31:02.176Z,117
2023-03-03T10:36:01.026Z,121
2023-03-03T10:40:48.064Z,135
2023-03-03T10:45:48.076Z,134
2023-03-03T10:50:48.048Z,141
2023-03-03T10:55:48.004Z,135
2023-03-03T11:00:48.055Z,135
2023-03-03T11:05:48.002Z,136
2023-03-03T11:10:48.008Z,141
2023-03-03T11:15:47.988Z,145
2023-03-03T11:20:48.041Z,135
2023-03-03T11:25:48.023Z,180
2023-03-03T11:30:48.009Z,262
2023-03-03T11:35:48.041Z,376
2023-03-03T11:40:48.030Z,317
2023-03-03T11:45:48.009Z,219
2023-03-03T11:50:48.024Z,199
2023-03-03T11:55:48.009Z,185
2023-03-03T12:00:47.982Z,178
2023-03-03T12:05:48.031Z,196
2023-03-03T12:10:48.007Z,281
2023-03-03T12:15:48.062Z,308
2023-03-03T12:20:47.982Z,376
2023-03-03T12:25:47.956Z,620
2023-03-03T12:30:47.959Z,503
2023-03-03T12:35:50.259Z,257
2023-03-03T12:40:48.016Z,236
2023-03-03T12:45:47.961Z,282
2023-03-03T12:50:47.953Z,315
2023-03-03T12:55:48.003Z,267
2023-03-03T13:00:48.108Z,214
2023-03-03T13:05:47.965Z,203
2023-03-03T13:10:47.984Z,226
2023-03-03T13:15:55.366Z,222
2023-03-03T13:20:48.024Z,233
2023-03-03T13:25:47.998Z,220
2023-03-03T13:30:48.600Z,168
2023-03-03T13:35:48.483Z,166
2023-03-03T13:40:48.547Z,176
2023-03-03T13:45:48.460Z,153
2023-03-03T13:50:48.439Z,168
2023-03-03T13:55:48.456Z,211
2023-03-03T14:00:48.625Z,307
2023-03-03T14:05:48.423Z,225
2023-03-03T14:10:48.435Z,133
2023-03-03T14:15:48.444Z,116
2023-03-03T14:20:48.483Z,123
2023-03-03T14:25:48.442Z,196
2023-03-03T14:30:48.421Z,212
2023-03-03T14:35:48.463Z,219
2023-03-03T14:40:48.471Z,185
2023-03-03T14:45:48.502Z,179
2023-03-03T14:50:48.453Z,192
2023-03-03T14:55:48.402Z,289
2023-03-03T15:00:48.439Z,241
2023-03-03T15:05:48.416Z,226
2023-03-03T15:10:48.439Z,209
2023-03-03T15:15:48.428Z,184
2023-03-03T15:20:48.449Z,150
2023-03-03T15:25:53.386Z,140
2023-03-03T15:30:58.538Z,51
2023-03-03T15:35:59.670Z,96
2023-03-03T15:41:00.381Z,104
2023-03-03T15:46:00.418Z,118
2023-03-03T15:51:00.416Z,112
2023-03-03T15:56:00.487Z,85
2023-03-03T16:01:00.454Z,72
2023-03-03T16:06:00.475Z,60
2023-03-03T16:11:00.541Z,56
2023-03-03T16:16:00.596Z,49
2023-03-03T16:21:00.577Z,43
2023-03-03T16:26:00.576Z,40
2023-03-03T16:31:00.595Z,36
2023-03-03T16:36:00.874Z,35
2023-03-03T16:41:00.994Z,23
2023-03-03T16:46:00.891Z,17
2023-03-03T16:51:00.912Z,15
2023-03-03T16:56:00.936Z,16
2023-03-03T17:01:01.013Z,6
2023-03-03T17:06:00.938Z,0
2023-03-03T17:11:01.009Z,0
2023-03-03T17:16:01.037Z,0
2023-03-03T17:21:01.011Z,0
2023-03-03T17:26:01.053Z,0
2023-03-03T17:31:01.068Z,0
2023-03-03T17:36:01.112Z,0
2023-03-03T17:41:01.120Z,0
2023-03-03T17:46:01.150Z,0
2023-03-03T17:51:01.155Z,0
2023-03-03T17:56:01.187Z,0
2023-03-03T18:01:01.178Z,0
2023-03-03T18:06:01.401Z,0
2023-03-03T18:11:01.461Z,0
2023-03-03T18:16:10.988Z,0
2023-03-03T18:21:01.541Z,0
2023-03-03T18:26:01.517Z,0
2023-03-03T18:31:01.824Z,0
2023-03-03T18:36:01.960Z,0
2023-03-03T18:41:01.826Z,0
2023-03-03T18:46:01.907Z,0
2023-03-03T18:51:01.901Z,0
2023-03-03T18:56:01.979Z,0
2023-03-03T19:01:01.939Z,0
2023-03-03T19:06:01.947Z,0
2023-03-03T19:11:01.952Z,0
2023-03-03T19:16:02.046Z,0
2023-03-03T19:21:01.973Z,0
2023-03-03T19:26:01.995Z,0
2023-03-03T19:31:02.130Z,0
2023-03-03T19:36:02.081Z,0
2023-03-03T19:41:02.080Z,0
2023-03-03T19:46:02.204Z,0
2023-03-03T19:51:02.106Z,0
2023-03-03T19:56:02.188Z,0
2023-03-03T20:01:02.139Z,0
2023-03-03T20:06:02.166Z,0
2023-03-03T20:11:02.199Z,0
2023-03-03T20:16:02.265Z,0
2023-03-03T20:21:02.213Z,0
2023-03-03T20:26:02.237Z,0
2023-03-03T20:31:02.265Z,0
2023-03-03T20:36:02.286Z,0
2023-03-03T20:41:02.288Z,0
2023-03-03T20:46:02.333Z,0
2023-03-03T20:51:02.367Z,0
2023-03-03T20:56:02.408Z,0
2023-03-03T21:01:02.438Z,0
2023-03-03T21:06:02.428Z,0
2023-03-03T21:11:02.447Z,0
2023-03-03T21:16:02.465Z,0
2023-03-03T21:21:02.462Z,0
2023-03-03T21:26:02.510Z,0
2023-03-03T21:31:02.516Z,0
2023-03-03T21:36:02.555Z,0
2023-03-03T21:41:02.560Z,0
2023-03-03T21:46:02.582Z,0
2023-03-03T21:51:02.567Z,0
2023-03-03T21:56:02.624Z,0
2023-03-03T22:01:02.666Z,0
2023-03-03T22:06:02.636Z,0
2023-03-03T22:11:02.697Z,0
2023-03-03T22:16:03.046Z,0
2023-03-03T22:21:02.970Z,0
2023-03-03T22:26:02.980Z,0
2023-03-03T22:31:03.015Z,0
2023-03-03T22:36:03.019Z,0
2023-03-03T22:41:03.037Z,0
2023-03-03T22:46:03.205Z,0
2023-03-03T22:51:03.102Z,0
2023-03-03T22:56:03.118Z,0
2023-03-03T23:01:03.093Z,0
2023-03-03T23:06:03.114Z,0
2023-03-03T23:11:03.144Z,0
2023-03-03T23:16:03.292Z,0
2023-03-03T23:21:03.176Z,0
2023-03-03T23:26:03.211Z,0
2023-03-03T23:31:03.291Z,0
2023-03-03T23:36:03.265Z,0
2023-03-03T23:41:03.281Z,0
2023-03-03T23:46:03.278Z,0
2023-03-03T23:51:03.315Z,0
2023-03-03T23:56:03.321Z,0
